Main page
METAR-TAF:

METAR-TAF

Airports :

Mehrabad International Airport

Tehran, Iran

latitude: 35-41N, longitude: 051-21E, elevation: 1204 m

Current weather observation

The report was made 28 minutes ago, at 04:00 UTC
Calm wind
Temperature 5°C
Humidity 75%
Pressure 1023 hPa
Visibility: 3500 m
haze

METAR: OIII 090400Z 00000KT 3500 HZ NSC 05/01 Q1022 A3020

Time: 07:58 (04:28 UTC)

Forecast

The report was made 5 hours and 18 minutes ago, at 23:10 UTC
Forecast valid from 09 at 00 UTC to 10 at 06 UTC
Wind 4 kt from the North/Northeast
Visibility: 5000 m
haze
Temporary
from 09 at 03 UTC to 09 at 08 UTC
Visibility: 2000 m
haze
Temporary
from 09 at 09 UTC to 09 at 15 UTC
Wind 8 kt from the Southwest
Visibility: 6000 m

TAF: OIII 082310Z 0900/1006 03004KT 5000 HZ NSC TEMPO 0903/0908 2000 HZ TEMPO 0909/0915 23008KT 6000

Weather observations and forecasts of more than 4000 airports (METAR and TAF reports).

The available stations are represented by yellow and red dots on the map.

Hover mouse over dot to see the name of the station.

Then click to see weather observations and forecasts.

To change the map : click on the green buttons with a black cross to zoom in, on the green button with a dash to zoom out, or on the green arrows for adjacent maps.


METAR-TAF: